createdAt,value
2022-10-13T00:02:15.144Z,1021.48
2022-10-13T00:04:29.582Z,1021.49
2022-10-13T00:06:44.299Z,1021.44
2022-10-13T00:08:59.884Z,1021.38
2022-10-13T00:11:15.505Z,1021.40
2022-10-13T00:13:31.083Z,1021.33
2022-10-13T00:15:47.684Z,1021.41
2022-10-13T00:18:03.253Z,1021.34
2022-10-13T00:20:18.844Z,1021.34
2022-10-13T00:22:34.425Z,1021.37
2022-10-13T00:24:49.014Z,1021.37
2022-10-13T00:27:07.122Z,1021.41
2022-10-13T00:29:26.045Z,1021.39
2022-10-13T00:31:43.281Z,1021.32
2022-10-13T00:34:01.373Z,1021.29
2022-10-13T00:36:19.434Z,1021.31
2022-10-13T00:38:35.055Z,1021.33
2022-10-13T00:40:53.142Z,1021.29
2022-10-13T00:43:11.204Z,1021.33
2022-10-13T00:45:26.774Z,1021.34
2022-10-13T00:47:42.378Z,1021.30
2022-10-13T00:49:58.981Z,1021.28
2022-10-13T00:52:12.628Z,1021.24
2022-10-13T00:54:26.275Z,1021.29
2022-10-13T00:56:44.297Z,1021.26
2022-10-13T00:59:00.892Z,1021.29
2022-10-13T01:01:16.539Z,1021.27
2022-10-13T01:03:31.042Z,1021.29
2022-10-13T01:05:49.168Z,1021.28
2022-10-13T01:08:08.069Z,1021.31
2022-10-13T01:10:21.263Z,1021.33
2022-10-13T01:12:35.921Z,1021.27
2022-10-13T01:14:51.486Z,1021.20
2022-10-13T01:17:07.587Z,1021.22
2022-10-13T01:19:22.663Z,1021.21
2022-10-13T01:21:40.760Z,1021.17
2022-10-13T01:23:56.343Z,1021.16
2022-10-13T01:26:11.944Z,1021.17
2022-10-13T01:28:25.038Z,1021.14
2022-10-13T01:30:43.102Z,1021.13
2022-10-13T01:33:02.123Z,1021.08
2022-10-13T01:35:16.805Z,1021.02
2022-10-13T01:37:32.371Z,1020.99
2022-10-13T01:39:53.811Z,1020.93
2022-10-13T01:42:11.064Z,1020.93
2022-10-13T01:44:24.177Z,1020.92
2022-10-13T01:46:39.783Z,1020.85
2022-10-13T01:48:57.840Z,1020.83
2022-10-13T01:51:15.474Z,1020.81
2022-10-13T01:53:31.040Z,1020.80
2022-10-13T01:55:46.639Z,1020.70
2022-10-13T01:58:04.741Z,1020.70
2022-10-13T02:00:18.304Z,1020.67
2022-10-13T02:02:33.890Z,1020.68
2022-10-13T02:04:49.482Z,1020.60
2022-10-13T02:07:02.602Z,1020.57
2022-10-13T02:09:23.214Z,1020.54
2022-10-13T02:11:38.760Z,1020.55
2022-10-13T02:13:56.847Z,1020.56
2022-10-13T02:16:12.439Z,1020.54
2022-10-13T02:18:30.531Z,1020.52
2022-10-13T02:20:48.643Z,1020.51
2022-10-13T02:23:02.251Z,1020.50
2022-10-13T02:25:15.313Z,1020.48
2022-10-13T02:27:29.900Z,1020.43
2022-10-13T02:29:50.486Z,1020.40
2022-10-13T02:32:06.112Z,1020.40
2022-10-13T02:34:24.687Z,1020.34
2022-10-13T02:36:39.761Z,1020.37
2022-10-13T02:38:56.195Z,1020.33
2022-10-13T02:41:10.930Z,1020.28
2022-10-13T02:43:26.544Z,1020.24
2022-10-13T02:45:40.130Z,1020.28
2022-10-13T02:47:53.233Z,1020.32
2022-10-13T02:50:12.257Z,1020.26
2022-10-13T02:52:27.732Z,1020.24
2022-10-13T02:54:40.494Z,1020.31
2022-10-13T02:56:56.142Z,1020.25
2022-10-13T02:59:11.730Z,1020.29
2022-10-13T03:01:27.313Z,1020.35
2022-10-13T03:03:41.100Z,1020.32
2022-10-13T03:05:56.816Z,1020.33
2022-10-13T03:08:12.365Z,1020.30
2022-10-13T03:10:25.462Z,1020.26
2022-10-13T03:12:38.547Z,1020.25
2022-10-13T03:13:38.523Z,1020.19
2022-10-13T03:15:53.109Z,1020.22
2022-10-13T03:18:15.154Z,1020.24
2022-10-13T03:20:26.789Z,1020.19
2022-10-13T03:22:40.421Z,1020.11
2022-10-13T03:24:55.982Z,1020.02
2022-10-13T03:27:10.580Z,1020.11
2022-10-13T03:29:24.165Z,1020.11
2022-10-13T03:31:39.737Z,1020.14
2022-10-13T03:33:57.864Z,1020.07
2022-10-13T03:36:11.424Z,1019.92
2022-10-13T03:38:24.994Z,1019.90
2022-10-13T03:40:40.578Z,1019.98
2022-10-13T03:42:56.174Z,1020.00
2022-10-13T03:45:11.798Z,1019.97
2022-10-13T03:47:28.196Z,1020.03
2022-10-13T03:49:40.953Z,1020.00
2022-10-13T03:51:56.535Z,1020.00
2022-10-13T03:54:12.124Z,1019.96
2022-10-13T03:56:30.708Z,1019.99
2022-10-13T03:58:48.276Z,1019.96
2022-10-13T04:01:02.878Z,1019.91
2022-10-13T04:03:16.479Z,1019.90
2022-10-13T04:05:32.953Z,1019.95
2022-10-13T04:07:50.195Z,1019.89
2022-10-13T04:10:10.200Z,1019.91
2022-10-13T04:12:21.501Z,1019.92
2022-10-13T04:14:39.406Z,1019.96
2022-10-13T04:16:55.505Z,1019.96
2022-10-13T04:19:10.597Z,1019.97
2022-10-13T04:21:28.663Z,1019.91
2022-10-13T04:23:44.542Z,1019.93
2022-10-13T04:26:00.139Z,1019.83
2022-10-13T04:28:13.254Z,1019.82
2022-10-13T04:30:29.888Z,1019.80
2022-10-13T04:32:45.409Z,1019.77
2022-10-13T04:35:03.491Z,1019.74
2022-10-13T04:37:21.568Z,1019.79
2022-10-13T04:39:35.237Z,1019.74
2022-10-13T04:41:50.850Z,1019.73
2022-10-13T04:44:06.406Z,1019.71
2022-10-13T04:46:19.985Z,1019.68
2022-10-13T04:48:35.586Z,1019.70
2022-10-13T04:50:49.157Z,1019.70
2022-10-13T04:53:02.843Z,1019.66
2022-10-13T04:55:18.427Z,1019.68
2022-10-13T04:57:32.021Z,1019.63
2022-10-13T04:59:45.592Z,1019.59
2022-10-13T05:02:06.208Z,1019.66
2022-10-13T05:04:21.818Z,1019.59
2022-10-13T05:06:48.617Z,1019.56
2022-10-13T05:07:38.389Z,1019.56
2022-10-13T05:09:53.587Z,1019.54
2022-10-13T05:12:08.561Z,1019.48
2022-10-13T05:14:22.144Z,1019.46
2022-10-13T05:16:35.742Z,1019.47
2022-10-13T05:18:49.335Z,1019.42
2022-10-13T05:21:04.933Z,1019.46
2022-10-13T05:23:18.503Z,1019.42
2022-10-13T05:25:34.120Z,1019.46
2022-10-13T05:27:49.675Z,1019.45
2022-10-13T05:30:05.617Z,1019.42
2022-10-13T05:32:23.332Z,1019.41
2022-10-13T05:34:49.926Z,1019.40
2022-10-13T05:37:02.019Z,1019.47
2022-10-13T05:39:17.590Z,1019.43
2022-10-13T05:41:33.193Z,1019.44
2022-10-13T05:43:48.794Z,1019.43
2022-10-13T05:46:02.392Z,1019.46
2022-10-13T05:48:15.473Z,1019.46
2022-10-13T05:50:31.067Z,1019.47
2022-10-13T05:52:44.653Z,1019.42
2022-10-13T05:54:56.768Z,1019.48
2022-10-13T05:57:12.335Z,1019.47
2022-10-13T05:59:30.445Z,1019.48
2022-10-13T06:01:46.066Z,1019.48
2022-10-13T06:04:01.665Z,1019.47
2022-10-13T06:06:16.297Z,1019.52
2022-10-13T06:08:29.340Z,1019.49
2022-10-13T06:10:42.955Z,1019.46
2022-10-13T06:12:58.527Z,1019.42
2022-10-13T06:15:16.601Z,1019.43
2022-10-13T06:17:28.799Z,1019.44
2022-10-13T06:19:44.370Z,1019.40
2022-10-13T06:22:03.274Z,1019.34
2022-10-13T06:24:12.552Z,1019.42
2022-10-13T06:26:28.165Z,1019.39
2022-10-13T06:28:44.211Z,1019.39
2022-10-13T06:30:57.300Z,1019.40
2022-10-13T06:33:10.910Z,1019.38
2022-10-13T06:35:26.485Z,1019.37
2022-10-13T06:37:42.070Z,1019.39
2022-10-13T06:39:57.696Z,1019.31
2022-10-13T06:42:12.584Z,1019.32
2022-10-13T06:44:30.347Z,1019.34
2022-10-13T06:46:45.929Z,1019.27
2022-10-13T06:49:01.505Z,1019.27
2022-10-13T06:51:16.150Z,1019.32
2022-10-13T06:53:31.675Z,1019.28
2022-10-13T06:55:48.057Z,1019.24
2022-10-13T06:58:00.863Z,1019.22
2022-10-13T07:00:16.468Z,1019.23
2022-10-13T07:02:32.081Z,1019.26
2022-10-13T07:04:47.625Z,1019.23
2022-10-13T07:07:05.716Z,1019.30
2022-10-13T07:09:21.300Z,1019.34
2022-10-13T07:11:36.902Z,1019.30
2022-10-13T07:13:52.607Z,1019.24
2022-10-13T07:16:07.076Z,1019.18
2022-10-13T07:18:22.678Z,1019.12
2022-10-13T07:20:38.257Z,1019.15
2022-10-13T07:22:53.820Z,1019.13
2022-10-13T07:25:11.996Z,1019.08
2022-10-13T07:27:29.998Z,1019.03
2022-10-13T07:29:48.232Z,1019.09
2022-10-13T07:32:06.553Z,1019.09
2022-10-13T07:34:24.263Z,1019.10
2022-10-13T07:36:42.522Z,1019.01
2022-10-13T07:39:00.653Z,1019.05
2022-10-13T07:41:16.620Z,1019.05
2022-10-13T07:43:33.957Z,1019.04
2022-10-13T07:45:54.251Z,1019.03
2022-10-13T07:48:16.133Z,1019.00
2022-10-13T07:50:33.903Z,1019.01
2022-10-13T07:52:49.493Z,1019.00
2022-10-13T07:55:07.842Z,1019.02
2022-10-13T07:57:28.231Z,1019.08
2022-10-13T07:59:46.499Z,1019.07
2022-10-13T08:02:04.719Z,1019.02
2022-10-13T08:04:22.592Z,1019.02
2022-10-13T08:08:58.995Z,1018.93
2022-10-13T08:11:19.967Z,1018.84
2022-10-13T08:13:38.055Z,1018.89
2022-10-13T08:15:53.629Z,1018.85
2022-10-13T08:18:09.281Z,1018.85
2022-10-13T08:20:28.866Z,1018.86
2022-10-13T08:22:43.988Z,1018.83
2022-10-13T08:25:02.149Z,1018.79
2022-10-13T08:27:20.241Z,1018.78
2022-10-13T08:29:37.104Z,1018.76
2022-10-13T08:31:56.134Z,1018.74
2022-10-13T08:34:14.048Z,1018.73
2022-10-13T08:36:32.291Z,1018.72
2022-10-13T08:38:50.395Z,1018.69
2022-10-13T08:41:11.015Z,1018.62
2022-10-13T08:43:29.119Z,1018.57
2022-10-13T08:45:45.675Z,1018.52
2022-10-13T08:48:03.643Z,1018.48
2022-10-13T08:50:24.405Z,1018.46
2022-10-13T08:52:40.999Z,1018.46
2022-10-13T08:54:59.114Z,1018.48
2022-10-13T08:57:17.465Z,1018.41
2022-10-13T08:59:31.772Z,1018.38
2022-10-13T09:01:59.957Z,1018.41
2022-10-13T09:04:05.614Z,1018.45
2022-10-13T09:06:26.611Z,1018.48
2022-10-13T09:08:47.305Z,1018.47
2022-10-13T09:11:05.318Z,1018.48
2022-10-13T09:13:21.953Z,1018.44
2022-10-13T09:15:40.010Z,1018.47
2022-10-13T09:17:58.114Z,1018.45
2022-10-13T09:20:18.637Z,1018.47
2022-10-13T09:22:40.249Z,1018.48
2022-10-13T09:24:56.810Z,1018.49
2022-10-13T09:27:17.501Z,1018.55
2022-10-13T09:29:34.055Z,1018.54
2022-10-13T09:31:54.578Z,1018.51
2022-10-13T09:34:11.815Z,1018.50
2022-10-13T09:36:28.396Z,1018.57
2022-10-13T09:38:45.007Z,1018.58
2022-10-13T09:41:01.547Z,1018.56
2022-10-13T09:43:19.749Z,1018.51
2022-10-13T09:45:37.771Z,1018.53
2022-10-13T09:47:54.309Z,1018.54
2022-10-13T09:50:14.907Z,1018.50
2022-10-13T09:52:31.474Z,1018.51
2022-10-13T09:54:52.069Z,1018.45
2022-10-13T09:57:08.666Z,1018.45
2022-10-13T09:59:23.375Z,1018.42
2022-10-13T10:01:41.291Z,1018.41
2022-10-13T10:03:59.339Z,1018.38
2022-10-13T10:06:17.365Z,1018.32
2022-10-13T10:09:01.375Z,1018.32
2022-10-13T10:10:55.904Z,1018.29
2022-10-13T10:13:17.146Z,1018.33
2022-10-13T10:15:37.022Z,1018.28
2022-10-13T10:17:53.573Z,1018.29
2022-10-13T10:20:14.293Z,1018.26
2022-10-13T10:22:32.282Z,1018.21
2022-10-13T10:24:47.883Z,1018.13
2022-10-13T10:27:03.366Z,1018.11
2022-10-13T10:29:21.489Z,1018.09
2022-10-13T10:31:38.148Z,1018.03
2022-10-13T10:33:58.765Z,1018.03
2022-10-13T10:36:15.352Z,1017.99
2022-10-13T10:38:36.036Z,1017.94
2022-10-13T10:40:56.584Z,1017.86
2022-10-13T10:43:17.135Z,1017.84
2022-10-13T10:45:35.252Z,1017.80
2022-10-13T10:47:52.580Z,1017.79
2022-10-13T10:50:10.559Z,1017.77
2022-10-13T10:52:28.646Z,1017.76
2022-10-13T10:54:48.362Z,1017.71
2022-10-13T10:57:02.879Z,1017.69
2022-10-13T10:59:19.467Z,1017.74
2022-10-13T11:01:35.075Z,1017.70
2022-10-13T11:03:50.619Z,1017.74
2022-10-13T11:06:06.211Z,1017.75
2022-10-13T11:08:26.891Z,1017.70
2022-10-13T11:10:44.893Z,1017.72
2022-10-13T11:13:03.049Z,1017.72
2022-10-13T11:15:18.585Z,1017.67
2022-10-13T11:17:36.760Z,1017.64
2022-10-13T11:19:54.765Z,1017.58
2022-10-13T11:22:12.863Z,1017.48
2022-10-13T11:24:30.985Z,1017.40
2022-10-13T11:26:47.528Z,1017.42
2022-10-13T11:29:05.587Z,1017.36
2022-10-13T11:31:23.678Z,1017.33
2022-10-13T11:33:41.835Z,1017.30
2022-10-13T11:35:59.862Z,1017.18
2022-10-13T11:38:17.941Z,1017.13
2022-10-13T11:40:33.573Z,1017.09
2022-10-13T11:42:54.359Z,1017.09
2022-10-13T11:45:07.176Z,1017.10
2022-10-13T11:47:25.263Z,1017.16
2022-10-13T11:49:43.339Z,1017.09
2022-10-13T11:51:58.915Z,1017.03
2022-10-13T11:54:15.504Z,1017.02
2022-10-13T11:56:33.652Z,1017.07
2022-10-13T11:58:51.739Z,1017.14
2022-10-13T12:01:06.541Z,1017.17
2022-10-13T12:03:24.629Z,1017.15
2022-10-13T12:05:42.743Z,1017.17
2022-10-13T12:07:58.305Z,1017.14
2022-10-13T12:10:16.409Z,1017.16
2022-10-13T12:12:34.513Z,1017.14
2022-10-13T12:14:52.603Z,1017.15
2022-10-13T12:17:14.019Z,1017.14
2022-10-13T12:19:28.778Z,1017.10
2022-10-13T12:21:43.380Z,1017.08
2022-10-13T12:23:57.943Z,1017.09
2022-10-13T12:26:16.022Z,1017.08
2022-10-13T12:28:34.132Z,1017.11
2022-10-13T12:30:49.699Z,1017.12
2022-10-13T12:33:07.908Z,1017.14
2022-10-13T12:35:25.968Z,1017.14
2022-10-13T12:37:54.109Z,1017.20
2022-10-13T12:40:02.103Z,1017.15
2022-10-13T12:42:17.698Z,1017.17
2022-10-13T12:44:33.357Z,1017.17
2022-10-13T12:46:48.949Z,1017.15
2022-10-13T12:49:07.201Z,1017.14
2022-10-13T12:51:25.153Z,1017.14
2022-10-13T12:53:41.729Z,1017.18
2022-10-13T12:55:59.828Z,1017.15
2022-10-13T12:58:15.395Z,1017.11
2022-10-13T13:00:33.523Z,1017.10
2022-10-13T13:02:51.590Z,1017.10
2022-10-13T13:05:09.640Z,1017.10
2022-10-13T13:07:25.247Z,1017.05
2022-10-13T13:09:43.329Z,1017.04
2022-10-13T13:12:01.401Z,1017.06
2022-10-13T13:14:16.971Z,1017.02
2022-10-13T13:16:33.564Z,1017.00
2022-10-13T13:18:51.695Z,1016.99
2022-10-13T13:21:09.798Z,1016.91
2022-10-13T13:23:25.307Z,1016.91
2022-10-13T13:25:40.908Z,1016.82
2022-10-13T13:27:58.981Z,1016.74
2022-10-13T13:30:17.387Z,1016.69
2022-10-13T13:32:37.941Z,1016.67
2022-10-13T13:34:56.033Z,1016.61
2022-10-13T13:37:11.636Z,1016.65
2022-10-13T13:39:30.017Z,1016.68
2022-10-13T13:41:48.123Z,1016.67
2022-10-13T13:44:03.676Z,1016.68
2022-10-13T13:46:18.304Z,1016.67
2022-10-13T13:48:33.830Z,1016.57
2022-10-13T13:50:49.419Z,1016.55
2022-10-13T13:53:07.533Z,1016.54
2022-10-13T13:55:22.083Z,1016.48
2022-10-13T13:57:40.159Z,1016.49
2022-10-13T13:59:55.745Z,1016.45
2022-10-13T14:02:13.901Z,1016.47
2022-10-13T14:04:31.940Z,1016.45
2022-10-13T14:06:50.062Z,1016.42
2022-10-13T14:09:08.078Z,1016.43
2022-10-13T14:11:26.156Z,1016.42
2022-10-13T14:13:44.245Z,1016.41
2022-10-13T14:15:59.874Z,1016.38
2022-10-13T14:18:17.961Z,1016.37
2022-10-13T14:20:36.025Z,1016.39
2022-10-13T14:22:52.231Z,1016.40
2022-10-13T14:25:07.210Z,1016.37
2022-10-13T14:27:25.307Z,1016.35
2022-10-13T14:29:40.867Z,1016.37
2022-10-13T14:31:59.007Z,1016.32
2022-10-13T14:34:17.083Z,1016.26
2022-10-13T14:36:32.657Z,1016.20
2022-10-13T14:38:48.282Z,1016.21
2022-10-13T14:41:02.829Z,1016.17
2022-10-13T14:43:20.918Z,1016.17
2022-10-13T14:45:35.566Z,1016.16
2022-10-13T14:47:53.620Z,1016.13
2022-10-13T14:50:11.732Z,1016.14
2022-10-13T14:52:29.796Z,1016.09
2022-10-13T14:54:47.899Z,1016.12
2022-10-13T14:57:04.036Z,1016.17
2022-10-13T14:59:22.142Z,1016.28
2022-10-13T15:01:40.263Z,1016.27
2022-10-13T15:03:56.840Z,1016.31
2022-10-13T15:06:14.890Z,1016.32
2022-10-13T15:08:32.965Z,1016.30
2022-10-13T15:10:51.054Z,1016.35
2022-10-13T15:13:09.185Z,1016.37
2022-10-13T15:15:27.240Z,1016.37
2022-10-13T15:17:45.296Z,1016.39
2022-10-13T15:20:03.378Z,1016.41
2022-10-13T15:22:18.211Z,1016.46
2022-10-13T15:24:33.577Z,1016.52
2022-10-13T15:26:49.155Z,1016.51
2022-10-13T15:29:04.727Z,1016.48
2022-10-13T15:31:22.825Z,1016.47
2022-10-13T15:33:38.395Z,1016.48
2022-10-13T15:35:56.511Z,1016.49
2022-10-13T15:38:14.593Z,1016.49
2022-10-13T15:40:30.171Z,1016.49
2022-10-13T15:42:44.761Z,1016.48
2022-10-13T15:45:15.796Z,1016.42
2022-10-13T15:47:17.317Z,1016.41
2022-10-13T15:49:34.002Z,1016.38
2022-10-13T15:51:49.582Z,1016.33
2022-10-13T15:54:07.670Z,1016.35
2022-10-13T15:56:25.733Z,1016.39
2022-10-13T15:58:43.853Z,1016.34
2022-10-13T16:00:59.426Z,1016.35
2022-10-13T16:03:17.511Z,1016.37
2022-10-13T16:05:35.596Z,1016.36
2022-10-13T16:07:53.686Z,1016.34
2022-10-13T16:10:09.307Z,1016.30
2022-10-13T16:12:23.853Z,1016.28
2022-10-13T16:14:39.476Z,1016.27
2022-10-13T16:16:59.385Z,1016.27
2022-10-13T16:19:13.149Z,1016.29
2022-10-13T16:21:28.741Z,1016.31
2022-10-13T16:23:43.292Z,1016.33
2022-10-13T16:26:01.385Z,1016.33
2022-10-13T16:28:17.025Z,1016.30
2022-10-13T16:30:35.038Z,1016.34
2022-10-13T16:32:53.154Z,1016.30
2022-10-13T16:35:08.730Z,1016.34
2022-10-13T16:37:26.791Z,1016.36
2022-10-13T16:39:50.417Z,1016.39
2022-10-13T16:42:00.520Z,1016.37
2022-10-13T16:44:16.125Z,1016.39
2022-10-13T16:46:34.193Z,1016.42
2022-10-13T16:48:52.268Z,1016.38
2022-10-13T16:51:12.862Z,1016.35
2022-10-13T16:53:31.888Z,1016.37
2022-10-13T16:55:49.178Z,1016.38
2022-10-13T16:58:07.174Z,1016.37
2022-10-13T17:00:25.307Z,1016.29
2022-10-13T17:02:38.887Z,1016.32
2022-10-13T17:04:56.991Z,1016.27
2022-10-13T17:07:15.107Z,1016.22
2022-10-13T17:09:33.182Z,1016.22
2022-10-13T17:11:51.238Z,1016.19
2022-10-13T17:14:09.323Z,1016.21
2022-10-13T17:16:24.904Z,1016.20
2022-10-13T17:18:43.035Z,1016.24
2022-10-13T17:20:58.591Z,1016.24
2022-10-13T17:23:14.172Z,1016.25
2022-10-13T17:25:32.253Z,1016.28
2022-10-13T17:27:50.324Z,1016.32
2022-10-13T17:30:05.930Z,1016.28
2022-10-13T17:32:23.996Z,1016.36
2022-10-13T17:34:44.580Z,1016.41
2022-10-13T17:37:01.161Z,1016.41
2022-10-13T17:39:19.245Z,1016.28
2022-10-13T17:41:34.900Z,1016.25
2022-10-13T17:43:50.467Z,1016.25
2022-10-13T17:46:34.595Z,1016.22
2022-10-13T17:48:26.671Z,1016.23
2022-10-13T17:50:44.749Z,1016.25
2022-10-13T17:52:59.385Z,1016.28
2022-10-13T17:55:17.410Z,1016.29
2022-10-13T17:57:37.327Z,1016.24
2022-10-13T17:59:53.646Z,1016.24
2022-10-13T18:02:11.827Z,1016.24
2022-10-13T18:04:29.846Z,1016.20
2022-10-13T18:06:47.898Z,1016.19
2022-10-13T18:09:05.969Z,1016.14
2022-10-13T18:11:22.552Z,1016.12
2022-10-13T18:13:40.629Z,1016.09
2022-10-13T18:15:58.746Z,1016.11
2022-10-13T18:18:16.945Z,1016.11
2022-10-13T18:20:34.912Z,1016.12
2022-10-13T18:22:53.008Z,1016.13
2022-10-13T18:25:07.565Z,1016.16
2022-10-13T18:27:23.426Z,1016.18
2022-10-13T18:29:41.232Z,1016.20
2022-10-13T18:31:59.333Z,1016.22
2022-10-13T18:34:14.572Z,1016.23
2022-10-13T18:36:27.559Z,1016.18
2022-10-13T18:38:41.178Z,1016.17
2022-10-13T18:40:56.745Z,1016.18
2022-10-13T18:43:14.845Z,1016.19
2022-10-13T18:45:30.434Z,1016.17
2022-10-13T18:47:49.533Z,1016.21
2022-10-13T18:50:07.600Z,1016.22
2022-10-13T18:52:28.268Z,1016.19
2022-10-13T18:54:46.272Z,1016.17
2022-10-13T18:57:01.735Z,1016.10
2022-10-13T18:59:18.975Z,1016.07
2022-10-13T19:01:37.095Z,1016.07
2022-10-13T19:03:52.644Z,1016.04
2022-10-13T19:06:10.064Z,1016.08
2022-10-13T19:08:24.828Z,1016.05
2022-10-13T19:10:39.373Z,1016.05
2022-10-13T19:12:57.490Z,1016.03
2022-10-13T19:15:14.039Z,1015.99
2022-10-13T19:17:29.649Z,1015.96
2022-10-13T19:19:47.721Z,1015.94
2022-10-13T19:22:09.843Z,1015.96
2022-10-13T19:24:27.919Z,1015.95
2022-10-13T19:26:48.520Z,1015.94
2022-10-13T19:29:01.735Z,1015.94
2022-10-13T19:31:19.681Z,1016.02
2022-10-13T19:33:33.365Z,1015.96
2022-10-13T19:35:49.937Z,1015.95
2022-10-13T19:38:03.632Z,1015.94
2022-10-13T19:40:16.730Z,1015.93
2022-10-13T19:42:32.425Z,1015.89
2022-10-13T19:44:50.382Z,1015.91
2022-10-13T19:47:04.969Z,1015.89
2022-10-13T19:49:23.067Z,1015.89
2022-10-13T19:51:43.683Z,1015.85
2022-10-13T19:54:00.252Z,1015.87
2022-10-13T19:56:18.450Z,1015.93
2022-10-13T19:58:36.424Z,1015.92
2022-10-13T20:00:57.631Z,1015.95
2022-10-13T20:03:09.686Z,1015.94
2022-10-13T20:05:25.463Z,1015.93
2022-10-13T20:07:37.732Z,1015.89
2022-10-13T20:09:50.444Z,1015.99
2022-10-13T20:12:04.040Z,1015.98
2022-10-13T20:14:22.114Z,1016.06
2022-10-13T20:16:35.696Z,1016.00
2022-10-13T20:18:49.373Z,1016.04
2022-10-13T20:21:03.706Z,1016.01
2022-10-13T20:23:14.957Z,1016.01
2022-10-13T20:25:27.042Z,1016.02
2022-10-13T20:27:40.642Z,1016.00
2022-10-13T20:29:56.245Z,1015.99
2022-10-13T20:32:14.306Z,1016.01
2022-10-13T20:34:27.890Z,1015.94
2022-10-13T20:36:43.491Z,1015.97
2022-10-13T20:38:55.626Z,1015.97
2022-10-13T20:41:07.777Z,1015.96
2022-10-13T20:43:25.670Z,1015.95
2022-10-13T20:45:36.872Z,1015.95
2022-10-13T20:47:53.306Z,1015.93
2022-10-13T20:50:13.108Z,1015.93
2022-10-13T20:52:25.204Z,1015.93
2022-10-13T20:54:44.112Z,1015.96
2022-10-13T20:56:57.836Z,1015.97
2022-10-13T20:59:15.967Z,1015.97
2022-10-13T21:01:31.512Z,1015.99
2022-10-13T21:03:49.631Z,1015.99
2022-10-13T21:06:05.167Z,1015.99
2022-10-13T21:08:23.253Z,1016.00
2022-10-13T21:10:38.831Z,1015.97
2022-10-13T21:12:54.440Z,1015.93
2022-10-13T21:15:12.565Z,1015.95
2022-10-13T21:17:30.644Z,1015.91
2022-10-13T21:19:46.242Z,1015.94
2022-10-13T21:22:01.827Z,1015.94
2022-10-13T21:24:18.404Z,1015.90
2022-10-13T21:26:34.000Z,1015.89
2022-10-13T21:28:49.621Z,1015.90
2022-10-13T21:31:05.210Z,1015.84
2022-10-13T21:33:23.275Z,1015.88
2022-10-13T21:35:41.328Z,1015.90
2022-10-13T21:37:56.940Z,1015.93
2022-10-13T21:40:15.836Z,1015.91
2022-10-13T21:42:33.086Z,1015.95
2022-10-13T21:44:51.162Z,1015.94
2022-10-13T21:47:11.785Z,1015.97
2022-10-13T21:49:30.148Z,1016.02
2022-10-13T21:51:45.734Z,1016.02
2022-10-13T21:54:03.815Z,1016.03
2022-10-13T21:56:18.432Z,1016.01
2022-10-13T21:58:36.489Z,1016.01
2022-10-13T22:00:55.677Z,1016.00
2022-10-13T22:03:11.148Z,1015.98
2022-10-13T22:05:29.280Z,1015.98
2022-10-13T22:07:44.833Z,1015.98
2022-10-13T22:10:03.050Z,1016.00
2022-10-13T22:12:21.075Z,1015.96
2022-10-13T22:14:39.253Z,1016.03
2022-10-13T22:16:57.229Z,1016.02
2022-10-13T22:19:12.862Z,1016.00
2022-10-13T22:21:31.173Z,1016.02
2022-10-13T22:23:47.528Z,1016.00
2022-10-13T22:26:05.632Z,1016.00
2022-10-13T22:28:23.955Z,1015.93
2022-10-13T22:30:44.773Z,1015.90
2022-10-13T22:33:05.439Z,1015.90
2022-10-13T22:35:23.459Z,1015.91
2022-10-13T22:37:44.062Z,1015.84
2022-10-13T22:40:02.173Z,1015.82
2022-10-13T22:42:20.273Z,1015.83
2022-10-13T22:44:38.315Z,1015.86
2022-10-13T22:46:58.924Z,1015.84
2022-10-13T22:49:19.495Z,1015.90
2022-10-13T22:51:35.153Z,1015.92
2022-10-13T22:53:53.211Z,1015.82
2022-10-13T22:56:11.481Z,1015.88
2022-10-13T22:58:29.478Z,1015.84
2022-10-13T23:00:47.478Z,1015.85
2022-10-13T23:03:05.622Z,1015.83
2022-10-13T23:05:21.172Z,1015.85
2022-10-13T23:07:41.788Z,1015.79
2022-10-13T23:10:00.676Z,1015.77
2022-10-13T23:12:18.036Z,1015.78
2022-10-13T23:14:38.824Z,1015.77
2022-10-13T23:16:59.114Z,1015.80
2022-10-13T23:19:14.696Z,1015.74
2022-10-13T23:21:30.330Z,1015.79
2022-10-13T23:23:48.387Z,1015.75
2022-10-13T23:26:03.950Z,1015.76
2022-10-13T23:28:19.605Z,1015.77
2022-10-13T23:30:37.637Z,1015.76
2022-10-13T23:32:55.714Z,1015.77
2022-10-13T23:35:12.327Z,1015.72
2022-10-13T23:37:30.883Z,1015.75
2022-10-13T23:39:48.473Z,1015.72
2022-10-13T23:42:09.155Z,1015.72
2022-10-13T23:44:27.185Z,1015.69
2022-10-13T23:46:42.833Z,1015.66
2022-10-13T23:48:58.338Z,1015.66
2022-10-13T23:51:16.416Z,1015.66
2022-10-13T23:53:32.306Z,1015.63
2022-10-13T23:55:50.400Z,1015.64
2022-10-13T23:58:06.034Z,1015.64
